Time;durP1;ratioP1;P1;durP2;ratioP2;P2;SDS_P1;SDS_P2;PMS_P1;PMS_P2;Temp;Humidity;BMP_temperature;BMP_pressure;BME280_temperature;BME280_humidity;BME280_pressure;Samples;Min_cycle;Max_cycle;Signal;HPM_P1;HPM_P2
2022/06/27 00:01:41;;;;;;;2.05;1.95;;;;;;;;;;6189147;28;20232;-69
2022/06/27 00:05:01;;;;;;;2.10;1.90;;;;;;;;;;6199933;28;20221;-68
2022/06/27 00:08:21;;;;;;;2.53;2.33;;;;;;;;;;6197821;28;20252;-68
2022/06/27 00:11:43;;;;;;;2.42;2.22;;;;;;;;;;6195691;28;20228;-69
2022/06/27 00:15:05;;;;;;;2.22;2.05;;;;;;;;;;6203987;28;20232;-69
2022/06/27 00:18:25;;;;;;;2.65;2.22;;;;;;;;;;6198340;28;20581;-69
2022/06/27 00:21:46;;;;;;;2.38;2.20;;;;;;;;;;6178306;28;20225;-68
2022/06/27 00:25:08;;;;;;;2.55;2.05;;;;;;;;;;6195277;28;20229;-70
2022/06/27 00:28:30;;;;;;;1.98;1.77;;;;;;;;;;6193906;28;20232;-69
2022/06/27 00:31:50;;;;;;;1.80;1.70;;;;;;;;;;6196805;28;20225;-69
2022/06/27 00:35:11;;;;;;;2.10;2.00;;;;;;;;;;6202909;28;21963;-69
2022/06/27 00:38:32;;;;;;;2.65;1.95;;;;;;;;;;6199134;28;20229;-69
2022/06/27 00:41:52;;;;;;;2.63;2.42;;;;;;;;;;6200354;28;20233;-69
2022/06/27 00:45:14;;;;;;;2.63;2.15;;;;;;;;;;6202249;28;20233;-69
2022/06/27 00:48:35;;;;;;;2.65;2.20;;;;;;;;;;6195797;28;20229;-69
2022/06/27 00:51:55;;;;;;;2.72;2.47;;;;;;;;;;6203409;28;20323;-70
2022/06/27 00:55:16;;;;;;;2.35;2.10;;;;;;;;;;6197811;28;20233;-68
2022/06/27 00:58:37;;;;;;;2.38;2.17;;;;;;;;;;6198032;28;20237;-68
2022/06/27 01:02:01;;;;;;;2.05;1.73;;;;;;;;;;6191822;28;20913;-69
2022/06/27 01:05:22;;;;;;;1.80;1.70;;;;;;;;;;6202524;28;20232;-68
2022/06/27 01:08:42;;;;;;;2.13;1.67;;;;;;;;;;6209014;28;20229;-70
2022/06/27 01:12:04;;;;;;;3.10;1.92;;;;;;;;;;6198912;28;20268;-69
2022/06/27 01:15:24;;;;;;;2.38;2.28;;;;;;;;;;6203385;28;20598;-69
2022/06/27 01:18:46;;;;;;;2.85;2.63;;;;;;;;;;6201646;28;20503;-68
2022/06/27 01:22:09;;;;;;;3.00;2.30;;;;;;;;;;6181884;28;20233;-70
2022/06/27 01:25:29;;;;;;;2.90;2.17;;;;;;;;;;6197323;28;21034;-69
2022/06/27 01:28:53;;;;;;;2.83;2.35;;;;;;;;;;6194706;28;20299;-69
2022/06/27 01:32:15;;;;;;;2.83;2.13;;;;;;;;;;6184033;28;20674;-69
2022/06/27 01:35:36;;;;;;;2.45;2.25;;;;;;;;;;6195792;28;21404;-69
2022/06/27 01:38:59;;;;;;;3.60;2.50;;;;;;;;;;6198650;28;20233;-68
2022/06/27 01:42:20;;;;;;;2.55;2.35;;;;;;;;;;6192217;28;20623;-69
2022/06/27 01:45:42;;;;;;;3.90;2.90;;;;;;;;;;6200398;28;20225;-68
2022/06/27 01:49:04;;;;;;;2.50;2.30;;;;;;;;;;6193368;28;20338;-69
2022/06/27 01:52:25;;;;;;;3.30;2.85;;;;;;;;;;6192295;28;20233;-69
2022/06/27 01:55:47;;;;;;;4.03;2.20;;;;;;;;;;6195863;28;20269;-69
2022/06/27 01:59:08;;;;;;;2.72;2.40;;;;;;;;;;6194535;28;20261;-69
2022/06/27 02:02:29;;;;;;;2.92;2.60;;;;;;;;;;6196585;28;20233;-69
2022/06/27 02:05:50;;;;;;;2.70;2.50;;;;;;;;;;6200490;28;20324;-69
2022/06/27 02:09:11;;;;;;;2.65;2.13;;;;;;;;;;6200970;28;20320;-69
2022/06/27 02:12:35;;;;;;;2.80;2.60;;;;;;;;;;6196500;28;20234;-69
2022/06/27 02:16:05;;;;;;;3.33;2.47;;;;;;;;;;6205569;28;20232;-68
2022/06/27 02:19:26;;;;;;;2.50;2.30;;;;;;;;;;6205691;28;20224;-69
2022/06/27 02:22:47;;;;;;;3.15;2.95;;;;;;;;;;6189306;28;20633;-70
2022/06/27 02:26:07;;;;;;;2.50;2.30;;;;;;;;;;6183754;28;20224;-69
2022/06/27 02:29:29;;;;;;;2.40;2.20;;;;;;;;;;6196398;28;20229;-69
2022/06/27 02:32:50;;;;;;;2.55;1.85;;;;;;;;;;6193417;28;20521;-68
2022/06/27 02:36:14;;;;;;;2.20;2.00;;;;;;;;;;6194200;28;21846;-70
2022/06/27 02:39:35;;;;;;;2.45;2.05;;;;;;;;;;6198702;28;20323;-69
2022/06/27 02:42:58;;;;;;;2.20;1.77;;;;;;;;;;6206820;28;20241;-68
2022/06/27 02:46:21;;;;;;;2.83;2.10;;;;;;;;;;6196006;28;20244;-68
2022/06/27 02:49:42;;;;;;;2.45;1.63;;;;;;;;;;6197789;28;20225;-68
2022/06/27 02:53:06;;;;;;;2.78;2.58;;;;;;;;;;6191098;28;20225;-69
2022/06/27 02:56:27;;;;;;;2.65;2.10;;;;;;;;;;6198587;28;20237;-68
2022/06/27 02:59:49;;;;;;;3.35;2.15;;;;;;;;;;6211860;28;20236;-69
2022/06/27 03:03:12;;;;;;;4.15;2.08;;;;;;;;;;6194811;28;20225;-70
2022/06/27 03:06:37;;;;;;;2.60;2.40;;;;;;;;;;6185435;28;20855;-69
2022/06/27 03:10:01;;;;;;;3.17;2.28;;;;;;;;;;6203388;28;20320;-70
2022/06/27 03:13:24;;;;;;;3.38;2.00;;;;;;;;;;6196206;28;20233;-68
2022/06/27 03:16:49;;;;;;;4.97;4.57;;;;;;;;;;6196923;28;20237;-69
2022/06/27 03:20:12;;;;;;;2.92;2.15;;;;;;;;;;6199408;28;20538;-71
2022/06/27 03:23:47;;;;;;;3.05;2.08;;;;;;;;;;6197148;28;20229;-69
2022/06/27 03:27:08;;;;;;;2.88;2.17;;;;;;;;;;6210727;28;20575;-69
2022/06/27 03:30:30;;;;;;;3.95;2.40;;;;;;;;;;6203313;28;21744;-68
2022/06/27 03:33:50;;;;;;;3.25;2.15;;;;;;;;;;6190453;28;20233;-70
2022/06/27 03:37:22;;;;;;;3.22;1.65;;;;;;;;;;6193229;28;20228;-69
2022/06/27 03:40:43;;;;;;;2.13;1.88;;;;;;;;;;6192304;28;20241;-69
2022/06/27 03:44:04;;;;;;;2.85;2.20;;;;;;;;;;6194835;28;20228;-70
2022/06/27 03:47:27;;;;;;;2.90;2.20;;;;;;;;;;6190679;28;20237;-71
2022/06/27 03:51:06;;;;;;;2.92;2.67;;;;;;;;;;6190522;28;20237;-71
2022/06/27 03:54:28;;;;;;;3.60;2.33;;;;;;;;;;6195824;28;20228;-71
2022/06/27 03:57:50;;;;;;;2.33;1.90;;;;;;;;;;6191875;28;20327;-70
2022/06/27 04:01:11;;;;;;;2.83;1.60;;;;;;;;;;6191867;28;20605;-71
2022/06/27 04:04:32;;;;;;;3.22;2.38;;;;;;;;;;6201043;28;20257;-71
2022/06/27 04:07:52;;;;;;;2.40;2.20;;;;;;;;;;6189312;28;20263;-71
2022/06/27 04:11:15;;;;;;;4.63;2.00;;;;;;;;;;6193648;28;21887;-71
2022/06/27 04:14:38;;;;;;;6.50;2.65;;;;;;;;;;6187611;28;20241;-70
2022/06/27 04:18:18;;;;;;;3.90;2.65;;;;;;;;;;6186921;28;20249;-70
2022/06/27 04:21:59;;;;;;;3.42;2.30;;;;;;;;;;6156007;28;20229;-70
2022/06/27 04:25:43;;;;;;;6.35;3.10;;;;;;;;;;6180808;28;20238;-70
2022/06/27 04:29:07;;;;;;;4.85;3.42;;;;;;;;;;6200788;28;20233;-70
2022/06/27 04:32:29;;;;;;;4.47;3.42;;;;;;;;;;6187229;28;20237;-71
2022/06/27 04:35:50;;;;;;;3.88;2.70;;;;;;;;;;6191745;28;20237;-71
2022/06/27 04:39:15;;;;;;;6.10;2.58;;;;;;;;;;6193630;28;20261;-69
2022/06/27 04:42:44;;;;;;;2.78;2.53;;;;;;;;;;6198563;28;20370;-70
2022/06/27 04:46:06;;;;;;;2.95;2.45;;;;;;;;;;6198084;28;20644;-69
2022/06/27 04:49:52;;;;;;;4.82;3.47;;;;;;;;;;6179713;28;21162;-70
2022/06/27 04:53:13;;;;;;;4.53;3.28;;;;;;;;;;6192732;28;20709;-69
2022/06/27 04:56:37;;;;;;;7.28;3.92;;;;;;;;;;6197763;28;20564;-70
2022/06/27 04:59:57;;;;;;;6.72;5.10;;;;;;;;;;6212053;28;20229;-70
2022/06/27 05:03:51;;;;;;;8.95;4.38;;;;;;;;;;6193609;28;20532;-69
2022/06/27 05:07:23;;;;;;;4.88;3.78;;;;;;;;;;6199106;28;20320;-69
2022/06/27 05:10:44;;;;;;;5.13;3.63;;;;;;;;;;6213474;28;20232;-68
2022/06/27 05:14:05;;;;;;;3.40;2.60;;;;;;;;;;6203876;28;20233;-69
2022/06/27 05:17:36;;;;;;;4.88;4.47;;;;;;;;;;6200315;28;20252;-70
2022/06/27 05:20:58;;;;;;;3.65;3.28;;;;;;;;;;6206604;28;20241;-70
2022/06/27 05:24:19;;;;;;;6.15;4.30;;;;;;;;;;6193568;28;20237;-70
2022/06/27 05:27:41;;;;;;;5.00;3.35;;;;;;;;;;6199460;28;20245;-70
2022/06/27 05:31:02;;;;;;;3.63;3.33;;;;;;;;;;6195174;28;20236;-70
2022/06/27 05:34:23;;;;;;;8.57;6.90;;;;;;;;;;6198797;28;20229;-71
2022/06/27 05:37:46;;;;;;;7.43;5.03;;;;;;;;;;6198847;28;20225;-70
2022/06/27 05:41:07;;;;;;;6.72;4.60;;;;;;;;;;6197285;28;20237;-70
2022/06/27 05:44:28;;;;;;;5.03;3.75;;;;;;;;;;6186661;28;20247;-69
2022/06/27 05:47:50;;;;;;;3.75;3.15;;;;;;;;;;6209403;28;20225;-70
2022/06/27 05:51:17;;;;;;;7.05;4.53;;;;;;;;;;6194142;28;20560;-70
2022/06/27 05:54:41;;;;;;;4.20;3.88;;;;;;;;;;6193060;28;20285;-70
2022/06/27 05:58:03;;;;;;;3.58;3.28;;;;;;;;;;6194726;28;20232;-72
2022/06/27 06:01:25;;;;;;;3.40;3.08;;;;;;;;;;6189243;28;20245;-69
2022/06/27 06:04:47;;;;;;;3.65;3.22;;;;;;;;;;6177547;28;20634;-71
2022/06/27 06:08:11;;;;;;;4.30;3.92;;;;;;;;;;6197619;28;20844;-70
2022/06/27 06:11:33;;;;;;;4.03;3.67;;;;;;;;;;6212095;28;20229;-71
2022/06/27 06:14:55;;;;;;;4.65;4.20;;;;;;;;;;6195921;28;20237;-69
2022/06/27 06:18:17;;;;;;;5.15;4.15;;;;;;;;;;6195263;28;20229;-69
2022/06/27 06:21:41;;;;;;;5.50;3.47;;;;;;;;;;6194320;28;20599;-69
2022/06/27 06:25:02;;;;;;;4.07;3.67;;;;;;;;;;6200503;28;20222;-69
2022/06/27 06:28:25;;;;;;;3.92;3.10;;;;;;;;;;6190374;28;20346;-69
2022/06/27 06:31:46;;;;;;;4.53;3.97;;;;;;;;;;6186726;28;20230;-69
2022/06/27 06:35:08;;;;;;;4.50;4.10;;;;;;;;;;6188614;28;20743;-68
2022/06/27 06:38:29;;;;;;;3.75;3.28;;;;;;;;;;6189679;28;20233;-69
2022/06/27 06:41:51;;;;;;;3.67;3.38;;;;;;;;;;6196765;28;20244;-69
2022/06/27 06:45:13;;;;;;;5.05;4.57;;;;;;;;;;6188341;28;20237;-67
2022/06/27 06:48:41;;;;;;;4.35;4.05;;;;;;;;;;6203958;28;20245;-68
2022/06/27 06:52:03;;;;;;;4.35;3.95;;;;;;;;;;6189984;28;20298;-69
2022/06/27 06:55:24;;;;;;;3.83;3.63;;;;;;;;;;6184161;28;20320;-68
2022/06/27 06:58:44;;;;;;;4.82;4.38;;;;;;;;;;6198007;28;20548;-68
2022/06/27 07:02:08;;;;;;;6.75;6.05;;;;;;;;;;6181542;28;20292;-69
2022/06/27 07:05:30;;;;;;;6.45;5.90;;;;;;;;;;6191824;28;20249;-68
2022/06/27 07:08:51;;;;;;;5.03;4.68;;;;;;;;;;6192098;28;20307;-68
2022/06/27 07:12:13;;;;;;;4.75;4.10;;;;;;;;;;6192949;28;20535;-68
2022/06/27 07:15:34;;;;;;;4.68;4.10;;;;;;;;;;6191836;28;20316;-71
2022/06/27 07:18:57;;;;;;;6.55;5.18;;;;;;;;;;6185361;28;20233;-71
2022/06/27 07:22:19;;;;;;;5.95;5.45;;;;;;;;;;6192077;28;20615;-70
2022/06/27 07:25:40;;;;;;;7.03;5.72;;;;;;;;;;6192059;28;20229;-68
2022/06/27 07:29:04;;;;;;;4.68;4.28;;;;;;;;;;6193319;28;20371;-67
2022/06/27 07:32:25;;;;;;;7.10;5.50;;;;;;;;;;6193054;28;20233;-68
2022/06/27 07:35:48;;;;;;;6.07;5.63;;;;;;;;;;6187413;28;20224;-67
2022/06/27 07:39:09;;;;;;;8.90;6.72;;;;;;;;;;6189654;28;20228;-68
2022/06/27 07:42:30;;;;;;;6.95;6.35;;;;;;;;;;6195572;28;20688;-68
2022/06/27 07:45:50;;;;;;;7.25;6.60;;;;;;;;;;6195414;28;20848;-68
2022/06/27 07:49:11;;;;;;;6.78;6.18;;;;;;;;;;6189467;28;20490;-68
2022/06/27 07:53:11;;;;;;;7.28;6.57;;;;;;;;;;6186069;28;20234;-69
2022/06/27 07:56:15;;;;;;;8.57;7.88;;;;;;;;;;6191334;28;20233;-69
2022/06/27 07:59:36;;;;;;;7.90;7.20;;;;;;;;;;6186769;28;20229;-69
2022/06/27 08:02:57;;;;;;;7.63;6.78;;;;;;;;;;6187672;28;20233;-69
2022/06/27 08:06:19;;;;;;;7.18;6.20;;;;;;;;;;6184361;28;20229;-70
2022/06/27 08:09:42;;;;;;;7.05;5.75;;;;;;;;;;6191672;28;20237;-70
2022/06/27 08:13:03;;;;;;;7.70;6.63;;;;;;;;;;6195911;28;20229;-71
2022/06/27 08:16:25;;;;;;;5.45;5.05;;;;;;;;;;6194034;28;20901;-70
2022/06/27 08:19:46;;;;;;;7.10;6.30;;;;;;;;;;6176942;28;20230;-67
2022/06/27 08:23:07;;;;;;;7.47;6.75;;;;;;;;;;6187205;28;20233;-70
2022/06/27 08:26:29;;;;;;;7.80;7.10;;;;;;;;;;6188680;28;20226;-69
2022/06/27 08:29:50;;;;;;;9.05;7.57;;;;;;;;;;6192380;28;20240;-70
2022/06/27 08:33:12;;;;;;;8.68;7.88;;;;;;;;;;6186829;28;22136;-70
2022/06/27 08:36:33;;;;;;;9.18;7.65;;;;;;;;;;6198232;28;20226;-70
2022/06/27 08:39:58;;;;;;;7.10;6.40;;;;;;;;;;6203009;28;20232;-68
2022/06/27 08:43:20;;;;;;;7.97;7.13;;;;;;;;;;6197493;28;20711;-70
2022/06/27 08:46:45;;;;;;;9.38;8.43;;;;;;;;;;6202187;28;20634;-70
2022/06/27 08:50:07;;;;;;;8.73;8.02;;;;;;;;;;6191269;28;20233;-69
2022/06/27 08:53:28;;;;;;;8.32;7.55;;;;;;;;;;6196371;28;20631;-69
2022/06/27 08:56:50;;;;;;;8.95;8.18;;;;;;;;;;6196692;28;20236;-69
2022/06/27 09:00:14;;;;;;;7.88;7.20;;;;;;;;;;6193262;28;20237;-68
2022/06/27 09:03:35;;;;;;;8.70;7.93;;;;;;;;;;6195618;28;20253;-68
2022/06/27 09:06:57;;;;;;;8.52;7.57;;;;;;;;;;6202517;28;20225;-70
2022/06/27 09:10:26;;;;;;;14.05;8.10;;;;;;;;;;6198156;28;20261;-68
2022/06/27 09:13:47;;;;;;;9.20;8.30;;;;;;;;;;6199580;28;20283;-68
2022/06/27 09:17:12;;;;;;;10.30;9.40;;;;;;;;;;6199361;28;20286;-68
2022/06/27 09:20:45;;;;;;;11.40;10.30;;;;;;;;;;6200934;28;20237;-68
2022/06/27 09:24:07;;;;;;;9.13;8.32;;;;;;;;;;6191868;28;20727;-68
2022/06/27 09:27:42;;;;;;;15.35;9.25;;;;;;;;;;6196883;28;20249;-68
2022/06/27 09:31:02;;;;;;;8.70;7.90;;;;;;;;;;6191228;28;20584;-67
2022/06/27 09:34:24;;;;;;;9.40;8.50;;;;;;;;;;6199508;28;20224;-68
2022/06/27 09:37:55;;;;;;;11.10;10.00;;;;;;;;;;6198813;28;20233;-68
2022/06/27 09:41:16;;;;;;;10.50;9.60;;;;;;;;;;6195536;28;20507;-68
2022/06/27 09:44:38;;;;;;;11.30;8.88;;;;;;;;;;6194320;28;20226;-68
2022/06/27 09:48:01;;;;;;;10.18;9.30;;;;;;;;;;6194382;28;20607;-66
2022/06/27 09:51:23;;;;;;;8.80;8.10;;;;;;;;;;6182781;28;20238;-70
2022/06/27 09:54:47;;;;;;;10.45;8.75;;;;;;;;;;6200960;28;20312;-69
2022/06/27 09:58:09;;;;;;;10.57;9.65;;;;;;;;;;6190476;28;20229;-71
2022/06/27 10:01:30;;;;;;;11.00;10.00;;;;;;;;;;6200974;28;21206;-69
2022/06/27 10:04:51;;;;;;;9.98;8.98;;;;;;;;;;6194004;28;20336;-68
2022/06/27 10:08:14;;;;;;;11.60;10.57;;;;;;;;;;6191180;28;20226;-69
2022/06/27 10:11:35;;;;;;;10.00;9.20;;;;;;;;;;6190980;28;20233;-68
2022/06/27 10:15:14;;;;;;;11.55;10.50;;;;;;;;;;6195477;28;20228;-70
2022/06/27 10:18:54;;;;;;;10.35;9.55;;;;;;;;;;6189401;28;20221;-70
2022/06/27 10:22:25;;;;;;;10.88;10.07;;;;;;;;;;6187365;28;20233;-71
2022/06/27 10:25:48;;;;;;;10.70;9.73;;;;;;;;;;6188126;28;20501;-71
2022/06/27 10:29:32;;;;;;;12.82;11.60;;;;;;;;;;6174776;28;20274;-71
2022/06/27 10:32:53;;;;;;;12.10;11.00;;;;;;;;;;6182229;28;20233;-71
2022/06/27 10:36:18;;;;;;;12.82;11.63;;;;;;;;;;6186075;28;20221;-70
2022/06/27 10:39:39;;;;;;;10.60;9.70;;;;;;;;;;6197036;28;20545;-70
2022/06/27 10:43:01;;;;;;;12.02;11.00;;;;;;;;;;6200489;28;20233;-70
2022/06/27 10:46:36;;;;;;;14.68;12.85;;;;;;;;;;6192177;28;20233;-71
2022/06/27 10:50:10;;;;;;;11.30;10.30;;;;;;;;;;6195185;28;20229;-70
2022/06/27 10:53:30;;;;;;;11.63;10.52;;;;;;;;;;6197275;28;20454;-69
2022/06/27 10:56:52;;;;;;;12.90;11.85;;;;;;;;;;6195160;28;20816;-71
2022/06/27 11:00:27;;;;;;;11.52;10.55;;;;;;;;;;6184738;28;20252;-72
2022/06/27 11:03:50;;;;;;;12.30;11.30;;;;;;;;;;6198122;28;20236;-70
2022/06/27 11:07:11;;;;;;;12.18;11.13;;;;;;;;;;6198012;28;20233;-70
2022/06/27 11:10:31;;;;;;;12.18;11.25;;;;;;;;;;6198111;28;20237;-70
2022/06/27 11:13:53;;;;;;;13.50;12.27;;;;;;;;;;6203997;28;20610;-71
2022/06/27 11:17:30;;;;;;;11.80;10.80;;;;;;;;;;6194460;28;20240;-70
2022/06/27 11:20:56;;;;;;;13.45;12.25;;;;;;;;;;6202372;28;20311;-70
2022/06/27 11:24:17;;;;;;;13.25;11.90;;;;;;;;;;6196555;28;20230;-70
2022/06/27 11:27:45;;;;;;;12.50;11.32;;;;;;;;;;6201002;28;20229;-72
2022/06/27 11:34:44;;;;;;;13.25;12.15;;;;;;;;;;6201588;28;20217;-75
2022/06/27 11:38:06;;;;;;;12.20;10.52;;;;;;;;;;6197408;28;20221;-72
2022/06/27 11:41:27;;;;;;;13.07;11.80;;;;;;;;;;6196620;28;20256;-70
2022/06/27 11:45:05;;;;;;;13.88;12.68;;;;;;;;;;6198332;28;20694;-69
2022/06/27 11:48:26;;;;;;;13.73;12.57;;;;;;;;;;6195959;28;20221;-68
2022/06/27 11:51:47;;;;;;;15.20;13.70;;;;;;;;;;6198181;28;20233;-74
2022/06/27 11:55:11;;;;;;;13.48;12.35;;;;;;;;;;6199836;28;20229;-73
2022/06/27 11:58:48;;;;;;;13.68;12.45;;;;;;;;;;6195792;28;20233;-69
2022/06/27 12:02:09;;;;;;;12.40;11.40;;;;;;;;;;6194807;28;20252;-69
2022/06/27 12:05:30;;;;;;;13.85;12.60;;;;;;;;;;6195737;28;20229;-67
2022/06/27 12:09:01;;;;;;;14.82;13.52;;;;;;;;;;6195439;28;20228;-66
2022/06/27 12:12:25;;;;;;;12.80;11.70;;;;;;;;;;6190182;28;20233;-71
2022/06/27 12:15:47;;;;;;;10.05;9.23;;;;;;;;;;6197389;28;20271;-71
2022/06/27 12:19:10;;;;;;;12.70;11.50;;;;;;;;;;6199723;28;20225;-71
2022/06/27 12:22:30;;;;;;;11.02;10.13;;;;;;;;;;6202388;28;20241;-72
2022/06/27 12:25:51;;;;;;;12.30;11.00;;;;;;;;;;6201203;28;20571;-70
2022/06/27 12:29:13;;;;;;;10.13;9.23;;;;;;;;;;6195780;28;20233;-70
2022/06/27 12:32:35;;;;;;;10.88;10.02;;;;;;;;;;6199112;28;20528;-69
2022/06/27 12:35:56;;;;;;;11.93;11.02;;;;;;;;;;6206142;28;20241;-71
2022/06/27 12:39:18;;;;;;;12.50;11.40;;;;;;;;;;6201769;28;20229;-71
2022/06/27 12:42:38;;;;;;;10.98;9.98;;;;;;;;;;6207805;28;20237;-68
2022/06/27 12:46:00;;;;;;;16.15;14.75;;;;;;;;;;6205673;28;20230;-69
2022/06/27 12:49:21;;;;;;;12.13;11.02;;;;;;;;;;6207094;28;20237;-69
2022/06/27 12:52:42;;;;;;;13.77;12.57;;;;;;;;;;6204477;28;20260;-69
2022/06/27 12:56:03;;;;;;;11.95;10.95;;;;;;;;;;6199774;28;20229;-70
2022/06/27 12:59:24;;;;;;;14.52;13.27;;;;;;;;;;6198944;28;20229;-70
2022/06/27 13:02:46;;;;;;;15.55;13.88;;;;;;;;;;6197236;28;20229;-70
2022/06/27 13:06:07;;;;;;;13.02;12.05;;;;;;;;;;6196548;28;20349;-69
2022/06/27 13:09:28;;;;;;;12.80;11.70;;;;;;;;;;6209579;28;20225;-71
2022/06/27 13:12:49;;;;;;;14.23;13.15;;;;;;;;;;6207182;28;20237;-70
2022/06/27 13:16:10;;;;;;;13.50;12.50;;;;;;;;;;6223623;28;20225;-70
2022/06/27 13:19:32;;;;;;;15.38;14.07;;;;;;;;;;6207772;28;20229;-71
2022/06/27 13:22:53;;;;;;;13.45;12.23;;;;;;;;;;6201345;28;20241;-71
2022/06/27 13:26:15;;;;;;;12.20;11.18;;;;;;;;;;6197870;28;20248;-69
2022/06/27 13:29:35;;;;;;;10.95;10.05;;;;;;;;;;6196640;28;20225;-70
2022/06/27 13:32:56;;;;;;;10.32;9.63;;;;;;;;;;6204848;28;20229;-70
2022/06/27 13:36:18;;;;;;;11.13;10.23;;;;;;;;;;6203687;28;20229;-70
2022/06/27 13:39:39;;;;;;;10.82;10.13;;;;;;;;;;6198280;28;20228;-69
2022/06/27 13:43:00;;;;;;;13.75;12.38;;;;;;;;;;6203514;28;20233;-70
2022/06/27 13:46:20;;;;;;;12.07;10.88;;;;;;;;;;6208793;28;20233;-70
2022/06/27 13:49:41;;;;;;;10.90;10.07;;;;;;;;;;6204564;28;20226;-71
2022/06/27 13:53:03;;;;;;;11.48;10.60;;;;;;;;;;6203460;28;20229;-70
2022/06/27 13:56:24;;;;;;;10.98;9.95;;;;;;;;;;6194846;28;20233;-71
2022/06/27 13:59:44;;;;;;;12.35;11.48;;;;;;;;;;6193738;28;20229;-69
2022/06/27 14:03:05;;;;;;;12.93;11.93;;;;;;;;;;6201035;28;20602;-67
2022/06/27 14:10:06;;;;;;;12.35;11.40;;;;;;;;;;6202910;28;20225;-68
2022/06/27 14:13:26;;;;;;;14.10;13.00;;;;;;;;;;6209779;28;20261;-68
2022/06/27 14:16:47;;;;;;;12.75;11.63;;;;;;;;;;6211351;28;20225;-68
2022/06/27 14:20:09;;;;;;;10.68;9.85;;;;;;;;;;6208149;28;20229;-68
2022/06/27 14:23:29;;;;;;;14.20;13.10;;;;;;;;;;6206909;28;22630;-69
2022/06/27 14:26:51;;;;;;;12.40;11.50;;;;;;;;;;6206035;28;20264;-68
2022/06/27 14:30:11;;;;;;;12.43;11.45;;;;;;;;;;6207245;28;20332;-68
2022/06/27 14:33:33;;;;;;;14.18;12.90;;;;;;;;;;6210972;28;20323;-68
2022/06/27 14:36:54;;;;;;;13.40;12.40;;;;;;;;;;6219371;28;20229;-70
2022/06/27 14:40:14;;;;;;;11.57;10.77;;;;;;;;;;6205183;28;20230;-67
2022/06/27 14:43:36;;;;;;;11.43;10.48;;;;;;;;;;6206494;28;20719;-67
2022/06/27 14:46:57;;;;;;;10.50;9.70;;;;;;;;;;6206306;28;20232;-69
2022/06/27 14:50:18;;;;;;;11.98;11.07;;;;;;;;;;6206493;28;20232;-68
2022/06/27 14:53:39;;;;;;;12.32;11.43;;;;;;;;;;6204535;28;20229;-68
2022/06/27 14:56:59;;;;;;;12.13;11.13;;;;;;;;;;6204500;28;20229;-68
2022/06/27 15:00:21;;;;;;;11.73;10.82;;;;;;;;;;6202077;28;20240;-69
2022/06/27 15:03:42;;;;;;;11.90;11.00;;;;;;;;;;6205784;28;20610;-68
2022/06/27 15:07:03;;;;;;;11.35;10.50;;;;;;;;;;6204879;28;20226;-68
2022/06/27 15:10:24;;;;;;;11.20;10.40;;;;;;;;;;6203643;28;20237;-68
2022/06/27 15:13:44;;;;;;;11.48;10.68;;;;;;;;;;6208178;28;20567;-69
2022/06/27 15:17:06;;;;;;;10.80;9.93;;;;;;;;;;6198232;28;20237;-69
2022/06/27 15:20:27;;;;;;;11.50;10.60;;;;;;;;;;6205501;28;20229;-69
2022/06/27 15:23:48;;;;;;;10.68;9.77;;;;;;;;;;6204545;28;20245;-69
2022/06/27 15:27:09;;;;;;;10.45;9.68;;;;;;;;;;6197186;28;20604;-68
2022/06/27 15:30:31;;;;;;;9.40;8.70;;;;;;;;;;6200313;28;20232;-68
2022/06/27 15:33:53;;;;;;;12.75;11.75;;;;;;;;;;6199869;28;20236;-68
2022/06/27 15:37:14;;;;;;;12.60;11.52;;;;;;;;;;6199260;28;20558;-68
2022/06/27 15:40:36;;;;;;;13.55;12.38;;;;;;;;;;6198162;28;20225;-68
2022/06/27 15:43:57;;;;;;;16.02;14.65;;;;;;;;;;6204913;28;20240;-68
2022/06/27 15:47:17;;;;;;;12.93;11.95;;;;;;;;;;6198009;28;20225;-67
2022/06/27 15:50:39;;;;;;;12.63;11.43;;;;;;;;;;6201318;28;20679;-69
2022/06/27 15:54:01;;;;;;;11.27;10.43;;;;;;;;;;6201543;28;20247;-68
2022/06/27 15:57:21;;;;;;;13.55;12.52;;;;;;;;;;6200602;28;20221;-68
2022/06/27 16:00:42;;;;;;;12.52;11.40;;;;;;;;;;6201546;28;20233;-68
2022/06/27 16:04:03;;;;;;;16.42;15.00;;;;;;;;;;6197124;28;20856;-68
2022/06/27 16:07:25;;;;;;;17.13;15.65;;;;;;;;;;6188296;28;20333;-69
2022/06/27 16:10:47;;;;;;;19.83;18.00;;;;;;;;;;6199377;28;21021;-68
2022/06/27 16:14:07;;;;;;;19.65;17.83;;;;;;;;;;6196367;28;20614;-68
2022/06/27 16:17:28;;;;;;;23.35;21.33;;;;;;;;;;6196801;28;20248;-69
2022/06/27 16:20:48;;;;;;;23.10;21.10;;;;;;;;;;6200366;28;20603;-68
2022/06/27 16:24:11;;;;;;;21.77;19.73;;;;;;;;;;6194107;28;20332;-67
2022/06/27 16:27:31;;;;;;;20.02;18.27;;;;;;;;;;6187634;28;20229;-69
2022/06/27 16:34:30;;;;;;;17.92;16.33;;;;;;;;;;6202132;28;20229;-68
2022/06/27 16:37:50;;;;;;;19.52;17.73;;;;;;;;;;6204121;28;20229;-68
2022/06/27 16:41:12;;;;;;;14.27;13.00;;;;;;;;;;6197439;28;20225;-69
2022/06/27 16:44:33;;;;;;;14.35;12.88;;;;;;;;;;6203057;28;20225;-70
2022/06/27 16:47:53;;;;;;;11.88;10.82;;;;;;;;;;6205493;28;20233;-68
2022/06/27 16:51:14;;;;;;;11.35;10.45;;;;;;;;;;6198263;28;20230;-68
2022/06/27 16:54:36;;;;;;;9.73;9.02;;;;;;;;;;6199958;28;20232;-69
2022/06/27 16:57:58;;;;;;;9.10;8.30;;;;;;;;;;6198021;28;20734;-68
2022/06/27 17:01:19;;;;;;;10.43;9.50;;;;;;;;;;6202068;28;21129;-69
2022/06/27 17:04:39;;;;;;;11.40;9.43;;;;;;;;;;6210263;28;20241;-69
2022/06/27 17:08:00;;;;;;;11.70;8.60;;;;;;;;;;6204092;28;20260;-68
2022/06/27 17:11:20;;;;;;;11.13;10.02;;;;;;;;;;6197776;28;20265;-68
2022/06/27 17:14:43;;;;;;;10.63;9.52;;;;;;;;;;6196687;28;20608;-68
2022/06/27 17:18:03;;;;;;;10.90;9.88;;;;;;;;;;6189158;28;20824;-69
2022/06/27 17:21:24;;;;;;;12.43;11.32;;;;;;;;;;6194745;28;20281;-68
2022/06/27 17:24:45;;;;;;;11.45;10.45;;;;;;;;;;6194871;28;20241;-71
2022/06/27 17:28:06;;;;;;;11.68;10.57;;;;;;;;;;6201882;28;20244;-69
2022/06/27 17:31:28;;;;;;;13.52;12.38;;;;;;;;;;6196587;28;20241;-69
2022/06/27 17:34:49;;;;;;;13.68;12.48;;;;;;;;;;6196907;28;20245;-68
2022/06/27 17:38:09;;;;;;;12.80;11.65;;;;;;;;;;6187266;28;20238;-68
2022/06/27 17:41:30;;;;;;;11.38;10.38;;;;;;;;;;6191795;28;20395;-68
2022/06/27 17:44:50;;;;;;;10.32;9.43;;;;;;;;;;6187046;28;20241;-70
2022/06/27 17:48:12;;;;;;;10.52;9.52;;;;;;;;;;6186020;28;20850;-70
2022/06/27 17:51:33;;;;;;;8.48;7.75;;;;;;;;;;6187672;28;20241;-69
2022/06/27 17:54:53;;;;;;;9.68;7.97;;;;;;;;;;6187457;28;20305;-69
2022/06/27 17:58:14;;;;;;;6.18;5.53;;;;;;;;;;6180822;28;20233;-70
2022/06/27 18:01:34;;;;;;;6.13;5.57;;;;;;;;;;6183695;28;20256;-70
2022/06/27 18:04:57;;;;;;;4.55;3.97;;;;;;;;;;6188154;28;20229;-69
2022/06/27 18:08:18;;;;;;;4.70;4.28;;;;;;;;;;6181754;28;20241;-69
2022/06/27 18:11:38;;;;;;;3.00;2.80;;;;;;;;;;6184969;28;20336;-70
2022/06/27 18:14:59;;;;;;;3.15;2.85;;;;;;;;;;6190410;28;20234;-70
2022/06/27 18:18:20;;;;;;;2.47;2.28;;;;;;;;;;6189428;28;20627;-70
2022/06/27 18:21:42;;;;;;;2.85;2.65;;;;;;;;;;6184479;28;20337;-69
2022/06/27 18:25:03;;;;;;;1.92;1.83;;;;;;;;;;6201152;28;20238;-68
2022/06/27 18:28:24;;;;;;;1.77;1.67;;;;;;;;;;6190395;28;20714;-68
2022/06/27 18:31:45;;;;;;;2.38;2.17;;;;;;;;;;6194695;28;20229;-67
2022/06/27 18:35:06;;;;;;;3.25;2.55;;;;;;;;;;6203950;28;20233;-69
2022/06/27 18:38:28;;;;;;;3.05;2.85;;;;;;;;;;6199521;28;20229;-68
2022/06/27 18:41:48;;;;;;;3.22;2.13;;;;;;;;;;6198386;28;21694;-68
2022/06/27 18:45:09;;;;;;;2.33;2.13;;;;;;;;;;6203352;28;20232;-68
2022/06/27 18:48:30;;;;;;;4.90;1.60;;;;;;;;;;6203415;28;20233;-69
2022/06/27 18:51:51;;;;;;;1.77;1.27;;;;;;;;;;6197498;28;20233;-69
2022/06/27 18:55:15;;;;;;;1.70;1.60;;;;;;;;;;6201402;28;20225;-67
2022/06/27 18:58:36;;;;;;;2.33;2.17;;;;;;;;;;6195918;28;20221;-68
2022/06/27 19:01:57;;;;;;;1.52;1.42;;;;;;;;;;6190376;28;20232;-67
2022/06/27 19:05:18;;;;;;;2.10;1.90;;;;;;;;;;6200123;28;20312;-68
2022/06/27 19:08:39;;;;;;;2.22;1.40;;;;;;;;;;6201285;28;20243;-67
2022/06/27 19:12:01;;;;;;;2.53;1.65;;;;;;;;;;6203933;28;20969;-68
2022/06/27 19:15:22;;;;;;;2.58;1.88;;;;;;;;;;6200869;28;20320;-68
2022/06/27 19:18:42;;;;;;;1.63;1.52;;;;;;;;;;6196341;28;20217;-68
2022/06/27 19:22:03;;;;;;;5.38;1.88;;;;;;;;;;6204864;28;20248;-69
2022/06/27 19:25:24;;;;;;;3.13;2.75;;;;;;;;;;6203557;28;20229;-68
2022/06/27 19:28:46;;;;;;;2.22;1.15;;;;;;;;;;6199145;28;20495;-67
2022/06/27 19:32:07;;;;;;;2.17;1.77;;;;;;;;;;6204008;28;20781;-68
2022/06/27 19:35:28;;;;;;;1.83;1.63;;;;;;;;;;6202308;28;20229;-71
2022/06/27 19:38:48;;;;;;;1.77;1.63;;;;;;;;;;6204686;28;20233;-68
2022/06/27 19:42:09;;;;;;;2.28;1.70;;;;;;;;;;6202422;28;20237;-68
2022/06/27 19:45:31;;;;;;;2.70;2.50;;;;;;;;;;6208285;28;20509;-69
2022/06/27 19:48:52;;;;;;;2.42;1.60;;;;;;;;;;6200826;28;20225;-68
2022/06/27 19:52:12;;;;;;;2.63;2.42;;;;;;;;;;6194731;28;20225;-67
2022/06/27 19:55:34;;;;;;;3.28;2.97;;;;;;;;;;6209799;28;20489;-68
2022/06/27 19:58:54;;;;;;;2.97;2.05;;;;;;;;;;6193695;28;20275;-67
2022/06/27 20:02:16;;;;;;;1.98;1.83;;;;;;;;;;6191821;28;20232;-68
2022/06/27 20:05:37;;;;;;;1.38;1.27;;;;;;;;;;6200636;28;20253;-68
2022/06/27 20:08:57;;;;;;;1.58;1.48;;;;;;;;;;6202743;28;20261;-69
2022/06/27 20:12:18;;;;;;;2.20;2.00;;;;;;;;;;6202808;28;20233;-68